Time;durP1;ratioP1;P1;durP2;ratioP2;P2;SDS_P1;SDS_P2;PMS_P1;PMS_P2;Temp;Humidity;BMP_temperature;BMP_pressure;BME280_temperature;BME280_humidity;BME280_pressure;Samples;Min_cycle;Max_cycle;Signal;HPM_P1;HPM_P2
2022/01/09 00:01:12;;;;;;;0.60;0.22;;;;;;;12.92;53.32;98544.06;4958409;29;20090;-69
2022/01/09 00:03:39;;;;;;;2.55;0.60;;;;;;;12.95;52.76;98553.56;4957150;29;20035;-70
2022/01/09 00:06:05;;;;;;;0.10;0.10;;;;;;;12.94;53.05;98555.44;4958357;28;20028;-70
2022/01/09 00:08:31;;;;;;;0.57;0.30;;;;;;;12.93;53.16;98559.13;4958425;28;20418;-69
2022/01/09 00:10:56;;;;;;;0.73;0.20;;;;;;;12.90;52.96;98561.41;4958138;29;20027;-70
2022/01/09 00:13:22;;;;;;;0.73;0.32;;;;;;;12.90;53.88;98570.28;4956424;29;20027;-68
2022/01/09 00:15:47;;;;;;;1.48;0.30;;;;;;;12.91;53.20;98573.81;4958095;29;20039;-68
2022/01/09 00:18:13;;;;;;;1.60;0.20;;;;;;;12.89;52.84;98576.69;4955287;29;20035;-68
2022/01/09 00:20:38;;;;;;;0.40;0.22;;;;;;;12.86;52.67;98587.84;4956801;28;20050;-68
2022/01/09 00:23:03;;;;;;;0.40;0.17;;;;;;;12.88;53.33;98585.78;4956632;29;20075;-68
2022/01/09 00:25:30;;;;;;;1.55;0.63;;;;;;;12.85;52.60;98586.19;4958557;28;20034;-68
2022/01/09 00:27:55;;;;;;;1.30;0.20;;;;;;;12.85;53.63;98591.53;4956544;28;20038;-68
2022/01/09 00:30:22;;;;;;;0.25;0.17;;;;;;;12.79;53.68;98600.41;4955397;29;20027;-68
2022/01/09 00:32:48;;;;;;;1.55;0.22;;;;;;;12.78;52.81;98596.06;4955306;28;20106;-68
2022/01/09 00:35:16;;;;;;;0.47;0.38;;;;;;;12.73;52.97;98603.91;4955119;29;20113;-68
2022/01/09 00:37:42;;;;;;;0.68;0.40;;;;;;;12.71;52.99;98617.50;4955242;29;20395;-68
2022/01/09 00:40:09;;;;;;;1.00;0.47;;;;;;;12.70;54.03;98628.47;4955179;29;20027;-69
2022/01/09 00:42:35;;;;;;;1.50;0.50;;;;;;;12.66;53.37;98632.56;4953878;28;20027;-68
2022/01/09 00:45:01;;;;;;;3.38;0.73;;;;;;;12.62;53.85;98634.78;4939049;29;20031;-69
2022/01/09 00:47:26;;;;;;;1.65;0.40;;;;;;;12.58;52.92;98643.44;4956258;28;20039;-68
2022/01/09 00:49:51;;;;;;;0.30;0.20;;;;;;;12.56;53.16;98665.13;4956072;28;20051;-69
2022/01/09 00:52:18;;;;;;;0.77;0.57;;;;;;;12.48;53.11;98659.09;4907233;29;20377;-69
2022/01/09 00:54:43;;;;;;;2.40;0.30;;;;;;;12.47;53.62;98676.22;4956127;29;20027;-70
2022/01/09 00:57:08;;;;;;;0.95;0.70;;;;;;;12.42;53.15;98665.22;4955421;28;20035;-70
2022/01/09 00:59:34;;;;;;;3.05;0.57;;;;;;;12.37;53.11;98691.84;4922560;29;20027;-70
2022/01/09 01:01:59;;;;;;;0.47;0.38;;;;;;;12.32;53.51;98707.66;4939074;29;20042;-69
2022/01/09 01:04:25;;;;;;;0.28;0.28;;;;;;;12.25;53.18;98703.06;4939839;29;20031;-69
2022/01/09 01:06:51;;;;;;;1.23;0.28;;;;;;;12.20;53.59;98716.22;4939994;29;20509;-69
2022/01/09 01:09:17;;;;;;;3.70;0.40;;;;;;;12.16;53.64;98747.16;4939888;29;20031;-69
2022/01/09 01:11:42;;;;;;;4.50;0.68;;;;;;;12.13;53.36;98752.91;4957034;29;20396;-70
2022/01/09 01:14:08;;;;;;;8.30;1.60;;;;;;;12.08;53.39;98758.03;4939792;29;20032;-69
2022/01/09 01:16:33;;;;;;;5.75;0.77;;;;;;;12.07;53.78;98785.03;4957061;29;20506;-70
2022/01/09 01:19:00;;;;;;;2.00;0.63;;;;;;;12.05;53.00;98787.91;4956886;29;20031;-70
2022/01/09 01:21:26;;;;;;;2.70;0.60;;;;;;;12.02;53.25;98801.72;4940049;29;20404;-70
2022/01/09 01:23:52;;;;;;;2.17;0.43;;;;;;;11.97;53.58;98809.50;4956922;29;20024;-69
2022/01/09 01:26:17;;;;;;;8.50;1.10;;;;;;;11.98;53.25;98811.13;4939808;29;20027;-70
2022/01/09 01:28:43;;;;;;;11.40;1.70;;;;;;;11.96;53.78;98826.59;4956878;29;20508;-69
2022/01/09 01:31:10;;;;;;;4.25;0.80;;;;;;;11.94;53.92;98843.91;4939784;29;20400;-69
2022/01/09 01:33:35;;;;;;;3.47;0.80;;;;;;;11.94;54.13;98847.44;4956662;29;20039;-69
2022/01/09 01:36:01;;;;;;;7.18;1.60;;;;;;;11.91;53.78;98861.22;4956613;29;20051;-69
2022/01/09 01:38:27;;;;;;;10.38;1.20;;;;;;;11.92;53.64;98868.22;4939679;29;20492;-69
2022/01/09 01:40:52;;;;;;;7.72;1.77;;;;;;;11.94;54.00;98882.31;4939478;29;20034;-68
2022/01/09 01:43:18;;;;;;;4.30;1.00;;;;;;;11.94;54.09;98886.84;4956693;29;20102;-69
2022/01/09 01:45:43;;;;;;;6.20;1.20;;;;;;;11.92;53.27;98897.72;4956214;28;20043;-69
2022/01/09 01:48:09;;;;;;;4.80;1.15;;;;;;;11.91;53.63;98904.13;4956645;29;20114;-69
2022/01/09 01:50:38;;;;;;;7.72;1.45;;;;;;;11.90;53.52;98918.56;4946802;29;20534;-69
2022/01/09 01:53:13;;;;;;;4.15;1.13;;;;;;;11.94;53.75;98925.22;4955424;29;20023;-69
2022/01/09 01:55:40;;;;;;;5.80;1.33;;;;;;;11.96;53.81;98935.75;4955284;29;20031;-71
2022/01/09 01:58:08;;;;;;;2.50;0.75;;;;;;;11.94;53.39;98944.00;4939149;29;20027;-70
2022/01/09 02:00:34;;;;;;;4.60;1.20;;;;;;;11.96;53.82;98959.91;4955077;29;20031;-70
2022/01/09 02:02:59;;;;;;;7.03;1.30;;;;;;;11.92;53.76;98964.81;4954919;29;20033;-70
2022/01/09 02:05:25;;;;;;;8.50;0.90;;;;;;;11.88;53.19;98968.88;4955007;29;20038;-70
2022/01/09 02:07:51;;;;;;;3.03;1.15;;;;;;;11.86;53.80;98968.25;4923381;29;20027;-69
2022/01/09 02:10:17;;;;;;;7.43;1.10;;;;;;;11.84;53.40;98978.31;4954466;28;20023;-68
2022/01/09 02:12:43;;;;;;;8.35;1.55;;;;;;;11.82;53.57;98974.13;4954685;29;20058;-68
2022/01/09 02:15:27;;;;;;;5.72;1.00;;;;;;;11.81;53.28;98989.41;4954957;29;20035;-68
2022/01/09 02:17:53;;;;;;;7.00;1.25;;;;;;;11.82;53.87;98992.91;4955963;28;20019;-68
2022/01/09 02:20:18;;;;;;;9.02;1.20;;;;;;;11.81;53.18;98989.41;4954768;29;20027;-68
2022/01/09 02:22:43;;;;;;;3.45;1.00;;;;;;;11.84;53.36;98993.56;4938548;29;20031;-68
2022/01/09 02:25:10;;;;;;;11.48;1.52;;;;;;;11.82;53.30;99007.16;4955800;28;20420;-69
2022/01/09 02:27:36;;;;;;;5.63;1.88;;;;;;;11.85;52.82;99012.19;4954489;29;20038;-68
2022/01/09 02:30:05;;;;;;;10.45;1.58;;;;;;;11.87;53.68;99026.22;4938509;29;20031;-69
2022/01/09 02:32:30;;;;;;;5.40;1.20;;;;;;;11.91;54.19;99022.19;4955796;29;20035;-67
2022/01/09 02:34:55;;;;;;;9.30;1.98;;;;;;;11.95;54.20;99026.16;4955651;28;20058;-67
2022/01/09 02:37:21;;;;;;;8.05;3.20;;;;;;;11.98;53.32;99039.22;4955650;29;20057;-68
2022/01/09 02:39:48;;;;;;;9.88;1.90;;;;;;;11.98;53.51;99039.22;4955682;28;20042;-67
2022/01/09 02:42:23;;;;;;;14.73;1.95;;;;;;;12.03;53.15;99052.91;4955492;28;20113;-67
2022/01/09 02:44:48;;;;;;;17.65;1.83;;;;;;;12.05;53.58;99058.94;4955491;28;20059;-66
2022/01/09 02:47:14;;;;;;;17.67;2.67;;;;;;;12.08;53.23;99061.28;4955664;28;20447;-66
2022/01/09 02:49:44;;;;;;;13.25;2.33;;;;;;;12.13;53.61;99069.59;4955304;28;20063;-67
2022/01/09 02:52:22;;;;;;;7.97;1.77;;;;;;;12.15;53.81;99070.25;4939175;29;20512;-66
2022/01/09 02:55:11;;;;;;;13.32;2.92;;;;;;;12.17;53.55;99076.25;4955380;29;20023;-66
2022/01/09 02:57:41;;;;;;;24.98;3.28;;;;;;;12.18;53.21;99088.66;4955278;29;20035;-67
2022/01/09 03:00:16;;;;;;;10.00;2.22;;;;;;;12.19;53.15;99094.88;4955292;29;20041;-67
2022/01/09 03:02:42;;;;;;;21.95;2.40;;;;;;;12.19;53.78;99105.63;4955316;29;20034;-67
2022/01/09 03:05:08;;;;;;;10.00;2.33;;;;;;;12.18;54.06;99110.16;4938184;29;20031;-66
2022/01/09 03:07:34;;;;;;;19.45;3.13;;;;;;;12.20;54.00;99113.47;4938194;29;20158;-67
2022/01/09 03:09:59;;;;;;;18.95;2.45;;;;;;;12.22;54.75;99116.84;4955276;29;20031;-67
2022/01/09 03:12:25;;;;;;;12.65;2.55;;;;;;;12.26;54.54;99123.50;4955167;29;20062;-67
2022/01/09 03:14:51;;;;;;;8.43;2.53;;;;;;;12.26;54.11;99138.75;4938214;29;20129;-66
2022/01/09 03:17:16;;;;;;;15.45;2.45;;;;;;;12.30;53.93;99152.66;4955401;29;20484;-67
2022/01/09 03:19:42;;;;;;;14.93;2.58;;;;;;;12.32;53.92;99153.31;4955116;29;20027;-66
2022/01/09 03:22:07;;;;;;;7.30;1.90;;;;;;;12.35;53.94;99158.31;4957670;28;20031;-67
2022/01/09 03:24:33;;;;;;;12.88;1.65;;;;;;;12.38;54.20;99166.84;4942016;29;20029;-66
2022/01/09 03:26:58;;;;;;;15.43;2.88;;;;;;;12.43;54.06;99166.28;4958993;29;20031;-66
2022/01/09 03:29:23;;;;;;;14.32;1.73;;;;;;;12.42;53.90;99170.00;4958954;29;20116;-66
2022/01/09 03:31:50;;;;;;;14.73;1.77;;;;;;;12.42;53.14;99172.69;4941892;29;20037;-66
2022/01/09 03:34:15;;;;;;;6.10;1.63;;;;;;;12.39;53.52;99175.75;4958713;29;20518;-67
2022/01/09 03:36:40;;;;;;;12.63;1.95;;;;;;;12.40;53.92;99188.13;4958753;29;20031;-66
2022/01/09 03:39:06;;;;;;;9.68;1.70;;;;;;;12.39;53.23;99186.47;4958716;29;20107;-67
2022/01/09 03:41:31;;;;;;;20.35;2.97;;;;;;;12.38;53.88;99190.16;4958717;29;20027;-67
2022/01/09 03:43:56;;;;;;;9.18;2.50;;;;;;;12.36;52.88;99208.31;4958708;29;20110;-66
2022/01/09 03:46:22;;;;;;;7.57;1.77;;;;;;;12.35;53.50;99212.00;4958891;28;20035;-66
2022/01/09 03:48:47;;;;;;;10.45;1.67;;;;;;;12.35;53.11;99215.53;4958421;29;20035;-66
2022/01/09 03:51:12;;;;;;;8.88;1.83;;;;;;;12.34;52.85;99215.72;4953437;29;20043;-66
2022/01/09 03:53:39;;;;;;;18.85;1.98;;;;;;;12.32;53.34;99225.78;4958326;29;20031;-66
2022/01/09 03:56:05;;;;;;;12.80;1.90;;;;;;;12.32;53.81;99223.94;4958467;28;20027;-66
2022/01/09 03:58:30;;;;;;;15.50;1.58;;;;;;;12.29;53.24;99245.78;4958376;28;20031;-67
2022/01/09 04:00:55;;;;;;;15.05;1.63;;;;;;;12.31;54.05;99243.75;4958256;28;20055;-66
2022/01/09 04:03:21;;;;;;;3.47;1.60;;;;;;;12.33;53.86;99255.16;4957050;29;20373;-66
2022/01/09 04:05:46;;;;;;;9.55;1.77;;;;;;;12.37;53.31;99252.97;4958147;28;20027;-67
2022/01/09 04:08:12;;;;;;;17.08;3.25;;;;;;;12.40;53.59;99257.94;4957292;29;20480;-66
2022/01/09 04:10:41;;;;;;;10.75;1.90;;;;;;;12.41;53.79;99270.38;4956972;29;20031;-67
2022/01/09 04:13:07;;;;;;;15.93;1.42;;;;;;;12.41;53.27;99273.06;4958186;28;20031;-66
2022/01/09 04:15:33;;;;;;;13.70;1.60;;;;;;;12.41;53.32;99275.75;4941199;29;20079;-66
2022/01/09 04:18:00;;;;;;;3.45;1.42;;;;;;;12.41;53.59;99286.47;4958160;29;20039;-66
2022/01/09 04:20:30;;;;;;;15.52;1.95;;;;;;;12.40;52.36;99291.00;4958128;28;20031;-67
2022/01/09 04:22:56;;;;;;;8.90;1.75;;;;;;;12.40;52.55;99303.59;4958032;29;20035;-65
2022/01/09 04:25:22;;;;;;;8.98;2.22;;;;;;;12.39;53.41;99307.31;4957954;29;20432;-66
2022/01/09 04:27:48;;;;;;;11.07;1.08;;;;;;;12.40;53.07;99309.81;4957902;29;20111;-66
2022/01/09 04:30:14;;;;;;;5.85;1.23;;;;;;;12.39;52.75;99316.22;4956733;29;20023;-67
2022/01/09 04:32:39;;;;;;;8.18;1.38;;;;;;;12.40;52.39;99320.53;4957543;28;20028;-66
2022/01/09 04:35:06;;;;;;;13.02;1.50;;;;;;;12.42;52.89;99333.81;4956503;29;20024;-67
2022/01/09 04:37:33;;;;;;;8.38;1.30;;;;;;;12.44;52.31;99340.69;4957684;29;20031;-67
2022/01/09 04:39:58;;;;;;;6.38;1.33;;;;;;;12.46;52.61;99343.16;4957735;28;20105;-66
2022/01/09 04:42:31;;;;;;;4.32;1.20;;;;;;;12.49;53.09;99350.88;4956578;29;20519;-66
2022/01/09 04:44:56;;;;;;;19.08;2.08;;;;;;;12.54;52.58;99348.47;4957435;28;20443;-66
2022/01/09 04:47:21;;;;;;;7.18;1.02;;;;;;;12.57;52.80;99361.56;4957653;28;20038;-67
2022/01/09 04:49:48;;;;;;;12.48;1.55;;;;;;;12.59;52.14;99362.25;4957559;28;20074;-66
2022/01/09 04:52:18;;;;;;;10.77;2.30;;;;;;;12.61;51.59;99370.94;4957775;29;20400;-67
2022/01/09 04:54:44;;;;;;;17.77;1.88;;;;;;;12.62;52.26;99377.97;4957578;29;20035;-67
2022/01/09 04:57:10;;;;;;;15.38;2.03;;;;;;;12.63;52.18;99393.94;4957500;29;20082;-67
2022/01/09 04:59:35;;;;;;;11.60;1.83;;;;;;;12.68;51.43;99382.63;4940200;29;20033;-66
2022/01/09 05:02:01;;;;;;;6.65;1.83;;;;;;;12.70;51.84;99388.69;4924438;29;20118;-67
2022/01/09 05:04:26;;;;;;;5.25;1.33;;;;;;;12.72;51.43;99398.25;4957418;29;20023;-67
2022/01/09 05:06:52;;;;;;;11.25;1.30;;;;;;;12.72;51.14;99409.00;4957281;29;20034;-67
2022/01/09 05:09:17;;;;;;;4.22;1.10;;;;;;;12.74;51.19;99411.50;4957065;29;20031;-67
2022/01/09 05:11:43;;;;;;;7.65;0.95;;;;;;;12.76;51.56;99420.19;4957286;29;20118;-66
2022/01/09 05:14:08;;;;;;;7.18;1.30;;;;;;;12.79;51.76;99425.22;4939747;29;20515;-66
2022/01/09 05:16:33;;;;;;;4.80;1.27;;;;;;;12.78;50.84;99428.94;4956955;29;20038;-67
2022/01/09 05:19:06;;;;;;;7.35;1.98;;;;;;;12.77;51.96;99435.31;4957082;29;20035;-66
2022/01/09 05:21:31;;;;;;;3.70;1.25;;;;;;;12.78;51.07;99428.94;4940890;29;20388;-67
2022/01/09 05:23:57;;;;;;;10.63;1.38;;;;;;;12.78;51.42;99439.69;4956947;29;20039;-67
2022/01/09 05:26:22;;;;;;;4.53;1.20;;;;;;;12.79;51.15;99435.97;4939904;29;20114;-67
2022/01/09 05:28:47;;;;;;;6.80;1.70;;;;;;;12.78;50.66;99450.44;4956806;29;20027;-67
2022/01/09 05:31:13;;;;;;;17.38;1.67;;;;;;;12.78;50.96;99450.44;4939546;29;20547;-66
2022/01/09 05:33:38;;;;;;;10.98;1.55;;;;;;;12.78;51.47;99453.13;4956569;29;20039;-67
2022/01/09 05:36:04;;;;;;;6.43;1.02;;;;;;;12.79;51.59;99463.69;4939484;29;20393;-66
2022/01/09 05:38:29;;;;;;;2.38;1.30;;;;;;;12.82;50.69;99467.84;4939477;29;20027;-66
2022/01/09 05:40:55;;;;;;;11.60;1.70;;;;;;;12.83;50.57;99470.38;4956589;29;20102;-67
2022/01/09 05:43:20;;;;;;;6.32;1.65;;;;;;;12.84;50.35;99463.97;4956210;28;20058;-66
2022/01/09 05:45:46;;;;;;;10.27;1.42;;;;;;;12.87;51.52;99475.41;4939136;29;20035;-67
2022/01/09 05:48:11;;;;;;;5.07;1.08;;;;;;;12.88;50.22;99477.91;4956546;29;20496;-67
2022/01/09 05:50:36;;;;;;;13.52;1.58;;;;;;;12.88;51.03;99483.28;4956130;29;20051;-67
2022/01/09 05:53:02;;;;;;;6.55;1.40;;;;;;;12.91;50.43;99487.47;4956311;29;20087;-66
2022/01/09 05:55:29;;;;;;;11.20;2.03;;;;;;;12.90;51.17;99492.00;4956304;29;20031;-67
2022/01/09 05:57:55;;;;;;;11.10;2.95;;;;;;;12.89;51.06;99495.72;4956452;29;20031;-65
2022/01/09 06:00:21;;;;;;;11.48;1.65;;;;;;;12.86;50.73;99501.44;4956282;29;20042;-67
2022/01/09 06:02:46;;;;;;;8.35;1.08;;;;;;;12.84;50.35;99509.66;4938924;29;20127;-66
2022/01/09 06:05:11;;;;;;;9.73;1.00;;;;;;;12.80;50.18;99510.19;4939148;29;20035;-67
2022/01/09 06:07:41;;;;;;;13.93;1.77;;;;;;;12.79;50.42;99519.25;4956231;29;20035;-66
2022/01/09 06:10:08;;;;;;;6.55;1.40;;;;;;;12.75;50.45;99509.91;4956099;29;20134;-67
2022/01/09 06:12:34;;;;;;;7.03;1.17;;;;;;;12.71;50.50;99511.25;4956225;29;20511;-67
2022/01/09 06:14:59;;;;;;;7.00;1.60;;;;;;;12.68;49.89;99520.50;4938950;29;20039;-66
2022/01/09 06:17:25;;;;;;;6.75;1.67;;;;;;;12.67;50.82;99521.50;4955815;29;20177;-66
2022/01/09 06:19:50;;;;;;;13.32;1.70;;;;;;;12.66;50.47;99519.00;4938856;29;20030;-67
2022/01/09 06:22:18;;;;;;;6.47;1.20;;;;;;;12.65;50.51;99530.75;4955785;29;20135;-66
2022/01/09 06:24:47;;;;;;;10.10;1.75;;;;;;;12.65;51.18;99528.91;4956197;29;20055;-66
2022/01/09 06:27:15;;;;;;;5.50;1.02;;;;;;;12.65;50.14;99541.50;4938524;29;20039;-67
2022/01/09 06:29:41;;;;;;;6.15;2.80;;;;;;;12.64;50.00;99539.84;4955794;29;20023;-65
2022/01/09 06:32:07;;;;;;;8.20;1.70;;;;;;;12.64;49.59;99539.84;4955605;29;20027;-66
2022/01/09 06:34:32;;;;;;;9.13;1.52;;;;;;;12.60;50.90;99549.25;4955906;29;20030;-69
2022/01/09 06:36:57;;;;;;;5.65;1.30;;;;;;;12.57;51.17;99565.69;4938509;29;20066;-67
2022/01/09 06:39:23;;;;;;;6.40;0.88;;;;;;;12.51;49.91;99564.53;4955739;29;20039;-66
2022/01/09 06:41:49;;;;;;;6.60;0.90;;;;;;;12.48;50.86;99572.13;4955585;29;20029;-67
2022/01/09 06:44:14;;;;;;;4.57;0.98;;;;;;;12.49;50.84;99573.78;4955485;29;20110;-65
2022/01/09 06:46:39;;;;;;;6.28;1.35;;;;;;;12.50;51.04;99575.47;4955888;28;20047;-66
2022/01/09 06:49:05;;;;;;;5.78;0.90;;;;;;;12.50;50.76;99586.22;4955563;29;20066;-65
2022/01/09 06:51:30;;;;;;;6.13;0.93;;;;;;;12.50;50.08;99580.84;4955354;29;20074;-66
2022/01/09 06:53:55;;;;;;;8.40;1.45;;;;;;;12.50;50.99;99587.06;4955304;29;20063;-66
2022/01/09 06:56:21;;;;;;;6.68;1.25;;;;;;;12.51;49.97;99599.47;4938151;29;20031;-66
2022/01/09 06:58:46;;;;;;;5.35;0.93;;;;;;;12.53;49.70;99602.00;4955476;29;20035;-66
2022/01/09 07:01:11;;;;;;;5.68;1.35;;;;;;;12.53;49.59;99602.84;4938263;29;20074;-66
2022/01/09 07:03:37;;;;;;;9.23;0.98;;;;;;;12.52;50.01;99597.63;4955553;29;20058;-67
2022/01/09 07:06:02;;;;;;;5.18;1.52;;;;;;;12.51;50.32;99612.03;4955303;29;20031;-67
2022/01/09 07:08:29;;;;;;;5.80;0.93;;;;;;;12.50;50.66;99613.06;4955279;29;20543;-67
2022/01/09 07:10:54;;;;;;;6.88;1.10;;;;;;;12.47;49.50;99625.00;4938039;29;20042;-67
2022/01/09 07:13:20;;;;;;;11.13;1.58;;;;;;;12.48;49.79;99620.47;4955144;29;20392;-66
2022/01/09 07:15:45;;;;;;;4.72;1.35;;;;;;;12.45;49.92;99628.88;4938118;29;20063;-66
2022/01/09 07:18:10;;;;;;;6.82;1.20;;;;;;;12.44;49.60;99636.09;4955529;29;20035;-66
2022/01/09 07:20:36;;;;;;;4.50;1.38;;;;;;;12.43;50.01;99647.81;4938123;29;20035;-66
2022/01/09 07:23:01;;;;;;;4.93;1.15;;;;;;;12.43;50.55;99652.34;4955328;29;20038;-66
2022/01/09 07:25:27;;;;;;;7.20;1.10;;;;;;;12.41;49.87;99657.91;4955101;29;20492;-66
2022/01/09 07:27:52;;;;;;;3.03;0.82;;;;;;;12.40;50.68;99663.44;4955179;29;20035;-66
2022/01/09 07:30:17;;;;;;;6.10;1.98;;;;;;;12.40;50.07;99668.81;4955342;29;20096;-66
2022/01/09 07:32:43;;;;;;;3.65;1.35;;;;;;;12.37;50.19;99669.16;4954862;29;20039;-66
2022/01/09 07:35:09;;;;;;;7.95;1.20;;;;;;;12.38;49.85;99665.44;4938086;29;20540;-66
2022/01/09 07:37:34;;;;;;;6.85;1.35;;;;;;;12.36;49.65;99675.53;4955017;29;20121;-66
2022/01/09 07:40:00;;;;;;;3.08;0.95;;;;;;;12.35;50.17;99680.06;4938005;29;20035;-66
2022/01/09 07:42:26;;;;;;;5.22;1.10;;;;;;;12.34;50.38;99680.25;4955006;29;20028;-66
2022/01/09 07:44:51;;;;;;;9.77;1.05;;;;;;;12.34;50.16;99688.31;4954933;29;20445;-65
2022/01/09 07:47:17;;;;;;;4.10;1.02;;;;;;;12.33;50.40;99697.34;4954733;28;20031;-66
2022/01/09 07:49:43;;;;;;;2.97;1.13;;;;;;;12.32;50.49;99684.91;4954741;29;20497;-66
2022/01/09 07:52:08;;;;;;;7.72;1.15;;;;;;;12.33;50.33;99694.66;4954847;29;20042;-66
2022/01/09 07:54:34;;;;;;;4.40;1.30;;;;;;;12.30;49.41;99695.00;4954823;29;20043;-67
2022/01/09 07:56:59;;;;;;;6.88;1.95;;;;;;;12.31;51.16;99700.19;4954936;29;20035;-66
2022/01/09 07:59:24;;;;;;;5.72;1.42;;;;;;;12.32;50.64;99707.25;4955036;29;20045;-66
2022/01/09 08:01:50;;;;;;;7.78;1.25;;;;;;;12.33;50.20;99708.94;4937693;29;20053;-65
2022/01/09 08:04:16;;;;;;;4.70;1.23;;;;;;;12.37;49.79;99712.94;4954992;29;20031;-66
2022/01/09 08:06:41;;;;;;;10.05;1.45;;;;;;;12.38;50.10;99719.16;4937832;29;20046;-67
2022/01/09 08:09:07;;;;;;;4.72;1.08;;;;;;;12.40;50.33;99725.19;4958213;29;20038;-66
2022/01/09 08:11:32;;;;;;;8.23;1.20;;;;;;;12.38;50.62;99729.91;4925235;29;20403;-67
2022/01/09 08:13:57;;;;;;;5.22;0.95;;;;;;;12.37;50.66;99720.19;4958156;29;20264;-66
2022/01/09 08:16:23;;;;;;;5.60;1.33;;;;;;;12.36;50.83;99746.19;4958369;29;20038;-66
2022/01/09 08:18:48;;;;;;;4.38;1.00;;;;;;;12.36;49.57;99748.03;4940901;29;20369;-67
2022/01/09 08:21:19;;;;;;;6.28;1.00;;;;;;;12.39;49.84;99759.28;4924928;29;20503;-66
2022/01/09 08:23:48;;;;;;;6.70;1.60;;;;;;;12.40;49.93;99762.78;4940460;29;20101;-67
2022/01/09 08:26:15;;;;;;;9.52;1.05;;;;;;;12.43;50.20;99754.41;4957217;29;20400;-67
2022/01/09 08:28:47;;;;;;;3.33;1.10;;;;;;;12.46;50.37;99756.75;4957157;29;20110;-66
2022/01/09 08:31:13;;;;;;;8.00;1.42;;;;;;;12.49;50.46;99756.44;4957576;29;20155;-66
2022/01/09 08:33:38;;;;;;;2.78;1.20;;;;;;;12.50;49.87;99774.22;4940331;29;20063;-68
2022/01/09 08:36:04;;;;;;;4.32;1.20;;;;;;;12.54;50.64;99767.50;4957798;29;20034;-68
2022/01/09 08:38:30;;;;;;;2.42;1.35;;;;;;;12.53;50.80;99779.28;4940568;29;20079;-66
2022/01/09 08:40:56;;;;;;;10.80;1.50;;;;;;;12.56;50.24;99778.94;4957454;29;20388;-67
2022/01/09 08:43:22;;;;;;;9.27;2.22;;;;;;;12.53;50.36;99773.91;4957333;29;20023;-66
2022/01/09 08:45:49;;;;;;;7.63;1.52;;;;;;;12.52;49.76;99782.94;4940415;29;20397;-66
2022/01/09 08:48:15;;;;;;;5.80;1.25;;;;;;;12.51;49.61;99781.25;4957352;29;20066;-67
2022/01/09 08:50:40;;;;;;;5.43;1.00;;;;;;;12.56;50.05;99789.69;4940094;29;20059;-66
2022/01/09 08:53:05;;;;;;;8.88;1.40;;;;;;;12.60;50.64;99788.31;4957435;29;20121;-66
2022/01/09 08:55:31;;;;;;;4.97;1.00;;;;;;;12.64;49.88;99789.69;4940183;29;20047;-67
2022/01/09 08:57:57;;;;;;;5.32;0.90;;;;;;;12.65;50.22;99794.03;4957124;29;20035;-67
2022/01/09 09:00:23;;;;;;;4.30;1.40;;;;;;;12.70;49.50;99797.06;4957009;29;20032;-66
2022/01/09 09:02:48;;;;;;;6.68;1.58;;;;;;;12.74;50.49;99799.25;4956971;29;20042;-65
2022/01/09 09:05:14;;;;;;;6.22;1.13;;;;;;;12.78;50.45;99797.06;4956947;29;20086;-67
2022/01/09 09:07:39;;;;;;;5.03;1.40;;;;;;;12.76;50.47;99802.59;4956883;29;20109;-66
2022/01/09 09:10:05;;;;;;;8.05;1.77;;;;;;;12.77;49.87;99808.81;4939661;29;20112;-66
2022/01/09 09:12:32;;;;;;;10.07;1.73;;;;;;;12.78;50.49;99797.91;4957130;29;20066;-66
2022/01/09 09:14:59;;;;;;;7.38;1.50;;;;;;;12.81;49.39;99810.16;4957202;29;20484;-66
2022/01/09 09:17:25;;;;;;;10.75;1.95;;;;;;;12.86;49.25;99807.81;4956976;29;20039;-67
2022/01/09 09:19:51;;;;;;;5.65;1.55;;;;;;;12.85;50.44;99817.72;4922903;29;20046;-67
2022/01/09 09:22:16;;;;;;;10.75;1.75;;;;;;;12.91;50.77;99820.72;4939700;29;20115;-66
2022/01/09 09:24:42;;;;;;;9.70;1.80;;;;;;;12.94;49.34;99821.25;4957079;29;20035;-67
2022/01/09 09:27:08;;;;;;;6.03;1.48;;;;;;;12.91;50.33;99826.94;4956994;29;20472;-67
2022/01/09 09:29:33;;;;;;;12.00;1.58;;;;;;;12.91;50.95;99836.84;4956768;29;20550;-65
2022/01/09 09:31:59;;;;;;;4.82;1.02;;;;;;;12.90;50.79;99849.44;4956927;29;20038;-66
2022/01/09 09:34:24;;;;;;;8.40;1.35;;;;;;;12.87;50.33;99840.91;4956564;29;20043;-67
2022/01/09 09:36:51;;;;;;;8.93;1.30;;;;;;;12.87;50.38;99847.09;4956757;29;20027;-67
2022/01/09 09:39:17;;;;;;;12.38;1.63;;;;;;;12.88;49.74;99853.31;4956752;29;20069;-66
2022/01/09 09:41:42;;;;;;;6.95;1.60;;;;;;;12.96;50.38;99840.72;4939392;29;20035;-67
2022/01/09 09:44:09;;;;;;;4.90;1.30;;;;;;;13.12;49.58;99839.91;4939336;29;20499;-67
2022/01/09 09:46:35;;;;;;;6.55;1.30;;;;;;;13.35;50.07;99846.25;4956627;28;20046;-66
2022/01/09 09:49:00;;;;;;;2.00;0.82;;;;;;;13.39;50.09;99845.75;4956475;29;20035;-66
2022/01/09 09:51:29;;;;;;;8.60;1.17;;;;;;;13.45;49.94;99848.78;4939407;29;20118;-66
2022/01/09 09:53:56;;;;;;;7.88;1.45;;;;;;;13.78;48.49;99853.03;4956363;29;20039;-66
2022/01/09 09:56:21;;;;;;;2.10;0.90;;;;;;;13.82;48.68;99849.81;4939213;29;20044;-66
2022/01/09 09:58:52;;;;;;;3.97;2.25;;;;;;;13.92;49.01;99861.25;4956372;29;20436;-66
2022/01/09 10:01:34;;;;;;;7.70;1.60;;;;;;;14.21;49.29;99865.97;4923200;29;20051;-66
2022/01/09 10:04:01;;;;;;;2.20;1.08;;;;;;;14.30;48.25;99864.91;4956301;29;20030;-69
2022/01/09 10:06:33;;;;;;;5.43;1.35;;;;;;;14.24;49.16;99873.69;4939106;29;20082;-67
2022/01/09 10:09:05;;;;;;;4.78;0.90;;;;;;;14.28;49.57;99872.34;4956237;29;20077;-67
2022/01/09 10:11:41;;;;;;;4.63;1.35;;;;;;;14.26;48.65;99869.00;4956413;29;20030;-66
2022/01/09 10:14:24;;;;;;;4.38;1.35;;;;;;;14.29;48.31;99871.31;4956287;29;20027;-66
2022/01/09 10:17:16;;;;;;;7.32;1.63;;;;;;;14.40;49.03;99880.91;4956038;29;20031;-67
2022/01/09 10:19:50;;;;;;;2.22;1.58;;;;;;;14.31;49.58;99885.47;4956243;29;20110;-67
2022/01/09 10:22:22;;;;;;;9.45;1.60;;;;;;;14.40;49.68;99884.44;4956135;29;20027;-67
2022/01/09 10:24:48;;;;;;;9.57;1.17;;;;;;;14.42;49.50;99884.25;4939116;29;20019;-66
2022/01/09 10:27:27;;;;;;;6.35;1.00;;;;;;;14.33;48.22;99891.53;4955984;29;20547;-66
2022/01/09 10:29:53;;;;;;;8.32;1.17;;;;;;;14.23;49.26;99901.66;4955720;28;20188;-66
2022/01/09 10:32:20;;;;;;;6.00;1.75;;;;;;;14.17;48.75;99896.97;4955871;29;20038;-67
2022/01/09 10:35:05;;;;;;;3.75;1.08;;;;;;;14.10;48.77;99900.56;4955866;29;20542;-66
2022/01/09 10:37:30;;;;;;;8.23;2.00;;;;;;;14.04;49.54;99902.09;4955811;29;20059;-66
2022/01/09 10:40:00;;;;;;;8.25;1.45;;;;;;;14.05;49.62;99909.13;4955580;29;20110;-66
2022/01/09 10:42:26;;;;;;;10.50;1.27;;;;;;;14.10;49.80;99905.94;4938754;29;20030;-66
2022/01/09 10:44:52;;;;;;;3.90;0.93;;;;;;;14.15;49.04;99917.88;4938741;29;20019;-67
2022/01/09 10:47:17;;;;;;;5.53;1.45;;;;;;;14.14;48.68;99913.47;4922328;29;20503;-67
2022/01/09 10:49:47;;;;;;;7.28;2.08;;;;;;;14.26;48.15;99919.34;4955481;29;20023;-66
2022/01/09 10:52:20;;;;;;;4.03;1.50;;;;;;;14.49;47.98;99918.38;4938231;29;20519;-66
2022/01/09 10:54:47;;;;;;;8.30;1.63;;;;;;;15.07;46.97;99922.41;4938526;29;20039;-67
2022/01/09 10:57:24;;;;;;;4.03;1.25;;;;;;;15.35;46.83;99926.22;4955489;29;20031;-67
2022/01/09 10:59:50;;;;;;;6.15;1.20;;;;;;;15.24;47.05;99929.38;4955424;29;20038;-67
2022/01/09 11:02:16;;;;;;;6.90;1.50;;;;;;;15.30;47.93;99923.22;4955349;29;20035;-67
2022/01/09 11:04:48;;;;;;;3.35;1.63;;;;;;;15.45;47.80;99925.97;4955405;29;20147;-67
2022/01/09 11:07:15;;;;;;;10.10;2.17;;;;;;;15.87;46.22;99923.56;4938948;29;20507;-67
2022/01/09 11:09:45;;;;;;;8.45;2.78;;;;;;;16.07;45.88;99927.38;4955708;29;20039;-66
2022/01/09 11:12:16;;;;;;;5.35;1.45;;;;;;;16.19;46.41;99919.66;4938886;29;20027;-66
2022/01/09 11:14:43;;;;;;;13.88;1.67;;;;;;;16.77;46.08;99924.13;4955353;29;20039;-67
2022/01/09 11:17:09;;;;;;;11.02;2.72;;;;;;;17.04;45.85;99922.53;4938805;29;20035;-66
2022/01/09 11:19:34;;;;;;;9.93;1.58;;;;;;;16.63;46.85;99920.44;4956103;29;20042;-67
2022/01/09 11:22:03;;;;;;;6.80;1.88;;;;;;;16.36;45.90;99931.91;4955482;29;20028;-67
2022/01/09 11:24:48;;;;;;;8.52;2.15;;;;;;;16.21;46.79;99934.66;4938446;29;20465;-67
2022/01/09 11:27:17;;;;;;;7.30;2.05;;;;;;;16.81;46.78;99942.47;4955541;29;20086;-67
2022/01/09 11:30:03;;;;;;;8.38;3.33;;;;;;;17.09;45.34;99939.03;4956034;29;20023;-67